createdAt,value
2018-12-09T00:00:02.530Z,986.81
2018-12-09T00:01:02.555Z,986.82
2018-12-09T00:02:02.568Z,986.80
2018-12-09T00:03:02.583Z,986.72
2018-12-09T00:04:02.595Z,986.70
2018-12-09T00:05:02.610Z,986.69
2018-12-09T00:06:02.623Z,986.63
2018-12-09T00:07:02.636Z,986.58
2018-12-09T00:08:02.648Z,986.60
2018-12-09T00:09:02.663Z,986.61
2018-12-09T00:10:02.676Z,986.49
2018-12-09T00:11:02.689Z,986.50
2018-12-09T00:12:02.703Z,986.50
2018-12-09T00:13:02.718Z,986.45
2018-12-09T00:14:02.730Z,986.46
2018-12-09T00:15:02.745Z,986.38
2018-12-09T00:16:02.769Z,986.37
2018-12-09T00:17:02.772Z,986.35
2018-12-09T00:18:02.783Z,986.37
2018-12-09T00:19:02.798Z,986.29
2018-12-09T00:20:02.810Z,986.23
2018-12-09T00:21:02.824Z,986.29
2018-12-09T00:22:02.836Z,986.23
2018-12-09T00:23:02.863Z,986.15
2018-12-09T00:24:02.863Z,986.07
2018-12-09T00:25:02.890Z,986.08
2018-12-09T00:26:02.894Z,986.08
2018-12-09T00:27:02.916Z,986.11
2018-12-09T00:28:02.929Z,986.05
2018-12-09T00:29:02.943Z,986.02
2018-12-09T00:30:02.958Z,985.94
2018-12-09T00:31:02.969Z,985.94
2018-12-09T00:32:02.985Z,985.87
2018-12-09T00:33:02.996Z,985.85
2018-12-09T00:34:03.010Z,985.91
2018-12-09T00:35:03.023Z,985.80
2018-12-09T00:36:03.037Z,985.78
2018-12-09T00:37:03.050Z,985.75
2018-12-09T00:38:03.064Z,985.71
2018-12-09T00:39:03.089Z,985.68
2018-12-09T00:40:03.090Z,985.69
2018-12-09T00:41:03.104Z,985.68
2018-12-09T00:42:03.117Z,985.62
2018-12-09T00:43:03.129Z,985.58
2018-12-09T00:44:03.144Z,985.55
2018-12-09T00:45:03.157Z,985.56
2018-12-09T00:46:03.174Z,985.51
2018-12-09T00:47:03.183Z,985.49
2018-12-09T00:48:03.198Z,985.45
2018-12-09T00:49:03.211Z,985.53
2018-12-09T00:50:03.224Z,985.47
2018-12-09T00:51:03.237Z,985.41
2018-12-09T00:52:03.251Z,985.42
2018-12-09T00:53:03.277Z,985.43
2018-12-09T00:54:03.279Z,985.38
2018-12-09T00:55:03.292Z,985.38
2018-12-09T00:56:03.319Z,985.34
2018-12-09T00:57:03.358Z,985.32
2018-12-09T00:58:03.347Z,985.28
2018-12-09T00:59:03.357Z,985.25
2018-12-09T01:00:03.370Z,985.18
2018-12-09T01:01:03.387Z,985.17
2018-12-09T01:02:03.397Z,985.16
2018-12-09T01:03:03.413Z,985.12
2018-12-09T01:04:03.424Z,985.08
2018-12-09T01:05:03.442Z,985.04
2018-12-09T01:06:03.453Z,985.03
2018-12-09T01:07:03.465Z,984.92
2018-12-09T01:08:03.478Z,984.87
2018-12-09T01:09:03.491Z,984.84
2018-12-09T01:10:03.504Z,984.71
2018-12-09T01:11:03.518Z,984.70
2018-12-09T01:12:03.532Z,984.60
2018-12-09T01:13:03.545Z,984.62
2018-12-09T01:14:03.559Z,984.54
2018-12-09T01:15:03.572Z,984.54
2018-12-09T01:16:03.584Z,984.63
2018-12-09T01:17:03.599Z,984.61
2018-12-09T01:18:03.624Z,984.49
2018-12-09T01:19:03.626Z,984.46
2018-12-09T01:20:03.637Z,984.40
2018-12-09T01:21:03.652Z,984.34
2018-12-09T01:22:03.665Z,984.29
2018-12-09T01:23:03.678Z,984.32
2018-12-09T01:24:03.694Z,984.24
2018-12-09T01:25:03.717Z,984.17
2018-12-09T01:26:03.720Z,984.19
2018-12-09T01:27:03.744Z,984.25
2018-12-09T01:28:03.758Z,984.17
2018-12-09T01:29:03.770Z,984.20
2018-12-09T01:30:03.784Z,984.16
2018-12-09T01:31:03.798Z,984.06
2018-12-09T01:32:03.812Z,984.05
2018-12-09T01:33:03.824Z,984.03
2018-12-09T01:34:03.843Z,984.01
2018-12-09T01:35:03.851Z,984.02
2018-12-09T01:36:03.865Z,983.99
2018-12-09T01:37:03.877Z,984.02
2018-12-09T01:38:03.893Z,983.95
2018-12-09T01:39:03.906Z,983.94
2018-12-09T01:40:03.920Z,983.89
2018-12-09T01:41:03.932Z,983.92
2018-12-09T01:42:03.953Z,983.92
2018-12-09T01:43:03.958Z,983.87
2018-12-09T01:44:03.972Z,983.83
2018-12-09T01:45:03.985Z,983.84
2018-12-09T01:46:04.000Z,983.80
2018-12-09T01:47:04.012Z,983.80
2018-12-09T01:48:04.038Z,983.77
2018-12-09T01:49:04.051Z,983.68
2018-12-09T01:50:04.065Z,983.71
2018-12-09T01:51:04.079Z,983.69
2018-12-09T01:52:04.096Z,983.70
2018-12-09T01:53:04.105Z,983.70
2018-12-09T01:54:04.131Z,983.73
2018-12-09T01:55:04.132Z,983.74
2018-12-09T01:56:04.145Z,983.71
2018-12-09T01:57:04.165Z,983.68
2018-12-09T01:58:04.172Z,983.65
2018-12-09T01:59:04.185Z,983.56
2018-12-09T02:00:04.198Z,983.56
2018-12-09T02:01:04.221Z,983.49
2018-12-09T02:02:04.226Z,983.54
2018-12-09T02:03:04.239Z,983.50
2018-12-09T02:04:04.252Z,983.47
2018-12-09T02:05:04.267Z,983.52
2018-12-09T02:06:04.279Z,983.40
2018-12-09T02:07:04.304Z,983.44
2018-12-09T02:08:04.318Z,983.41
2018-12-09T02:09:04.331Z,983.39
2018-12-09T02:10:04.346Z,983.39
2018-12-09T02:11:04.359Z,983.36
2018-12-09T02:12:04.373Z,983.33
2018-12-09T02:13:04.386Z,983.33
2018-12-09T02:14:04.399Z,983.26
2018-12-09T02:15:04.411Z,983.27
2018-12-09T02:16:04.425Z,983.25
2018-12-09T02:17:04.438Z,983.21
2018-12-09T02:18:04.453Z,983.17
2018-12-09T02:19:04.466Z,983.17
2018-12-09T02:20:04.480Z,983.20
2018-12-09T02:21:04.492Z,983.16
2018-12-09T02:22:04.505Z,983.12
2018-12-09T02:23:04.519Z,983.15
2018-12-09T02:24:04.547Z,983.07
2018-12-09T02:25:04.558Z,983.03
2018-12-09T02:26:04.571Z,983.03
2018-12-09T02:27:04.592Z,983.02
2018-12-09T02:28:04.598Z,983.02
2018-12-09T02:29:04.612Z,982.99
2018-12-09T02:30:04.626Z,983.04
2018-12-09T02:31:04.641Z,982.98
2018-12-09T02:32:04.665Z,982.96
2018-12-09T02:33:04.665Z,982.95
2018-12-09T02:34:04.685Z,982.89
2018-12-09T02:35:04.692Z,982.86
2018-12-09T02:36:04.705Z,982.86
2018-12-09T02:37:04.720Z,982.82
2018-12-09T02:38:04.736Z,982.80
2018-12-09T02:39:04.769Z,982.77
2018-12-09T02:40:04.771Z,982.81
2018-12-09T02:41:04.785Z,982.77
2018-12-09T02:42:04.798Z,982.78
2018-12-09T02:43:04.812Z,982.78
2018-12-09T02:44:04.826Z,982.75
2018-12-09T02:45:04.846Z,982.70
2018-12-09T02:46:04.851Z,982.71
2018-12-09T02:47:04.866Z,982.68
2018-12-09T02:48:04.882Z,982.58
2018-12-09T02:49:04.892Z,982.60
2018-12-09T02:50:04.906Z,982.65
2018-12-09T02:51:04.926Z,982.62
2018-12-09T02:52:04.943Z,982.58
2018-12-09T02:53:05.061Z,982.56
2018-12-09T02:54:04.970Z,982.58
2018-12-09T02:55:04.987Z,982.57
2018-12-09T02:56:04.997Z,982.50
2018-12-09T02:57:05.014Z,982.52
2018-12-09T02:58:05.025Z,982.41
2018-12-09T02:59:05.038Z,982.44
2018-12-09T03:00:05.053Z,982.39
2018-12-09T03:01:05.069Z,982.35
2018-12-09T03:02:05.078Z,982.35
2018-12-09T03:03:05.103Z,982.41
2018-12-09T03:04:05.118Z,982.39
2018-12-09T03:05:05.130Z,982.34
2018-12-09T03:06:05.144Z,982.34
2018-12-09T03:07:05.159Z,982.30
2018-12-09T03:08:05.172Z,982.32
2018-12-09T03:09:05.185Z,982.30
2018-12-09T03:10:05.203Z,982.31
2018-12-09T03:11:05.211Z,982.29
2018-12-09T03:12:05.226Z,982.30
2018-12-09T03:13:05.238Z,982.23
2018-12-09T03:14:05.252Z,982.25
2018-12-09T03:15:05.280Z,982.21
2018-12-09T03:16:05.290Z,982.20
2018-12-09T03:17:05.304Z,982.25
2018-12-09T03:18:05.331Z,982.21
2018-12-09T03:19:05.333Z,982.20
2018-12-09T03:20:05.351Z,982.16
2018-12-09T03:21:05.358Z,982.24
2018-12-09T03:22:05.372Z,982.16
2018-12-09T03:23:05.385Z,982.23
2018-12-09T03:24:05.397Z,982.16
2018-12-09T03:25:05.423Z,982.17
2018-12-09T03:26:05.437Z,982.11
2018-12-09T03:27:05.468Z,982.13
2018-12-09T03:28:05.465Z,982.05
2018-12-09T03:29:05.477Z,982.09
2018-12-09T03:30:05.492Z,982.10
2018-12-09T03:31:05.505Z,982.04
2018-12-09T03:32:05.520Z,982.10
2018-12-09T03:33:05.532Z,982.10
2018-12-09T03:34:05.558Z,982.06
2018-12-09T03:35:05.558Z,982.07
2018-12-09T03:36:05.584Z,982.03
2018-12-09T03:37:05.597Z,982.10
2018-12-09T03:38:05.621Z,982.07
2018-12-09T03:39:05.625Z,982.06
2018-12-09T03:40:05.640Z,981.98
2018-12-09T03:41:05.652Z,982.00
2018-12-09T03:42:05.664Z,981.96
2018-12-09T03:43:05.679Z,981.92
2018-12-09T03:44:05.692Z,981.98
2018-12-09T03:45:05.718Z,982.02
2018-12-09T03:46:05.722Z,981.96
2018-12-09T03:47:05.743Z,981.99
2018-12-09T03:48:05.757Z,982.01
2018-12-09T03:49:05.770Z,982.01
2018-12-09T03:50:05.787Z,981.96
2018-12-09T03:51:05.796Z,981.97
2018-12-09T03:52:05.812Z,982.00
2018-12-09T03:53:05.824Z,981.92
2018-12-09T03:54:05.838Z,981.94
2018-12-09T03:55:05.853Z,981.89
2018-12-09T03:56:05.879Z,981.89
2018-12-09T03:57:05.892Z,981.88
2018-12-09T03:58:05.903Z,981.81
2018-12-09T03:59:05.918Z,981.82
2018-12-09T04:00:05.930Z,981.85
2018-12-09T04:01:05.945Z,981.85
2018-12-09T04:02:05.960Z,981.86
2018-12-09T04:03:05.972Z,981.86
2018-12-09T04:04:05.985Z,981.90
2018-12-09T04:05:05.998Z,981.89
2018-12-09T04:06:06.012Z,981.81
2018-12-09T04:07:06.037Z,981.92
2018-12-09T04:08:06.052Z,981.91
2018-12-09T04:09:06.063Z,981.88
2018-12-09T04:10:06.078Z,981.89
2018-12-09T04:11:06.091Z,981.95
2018-12-09T04:12:06.104Z,981.95
2018-12-09T04:13:06.130Z,981.89
2018-12-09T04:14:06.131Z,981.92
2018-12-09T04:15:06.144Z,981.90
2018-12-09T04:16:06.160Z,981.90
2018-12-09T04:17:06.172Z,981.86
2018-12-09T04:18:06.199Z,981.84
2018-12-09T04:19:06.211Z,981.83
2018-12-09T04:20:06.225Z,981.84
2018-12-09T04:21:06.237Z,981.84
2018-12-09T04:22:06.252Z,981.81
2018-12-09T04:23:06.265Z,981.82
2018-12-09T04:24:06.278Z,981.78
2018-12-09T04:25:06.292Z,981.81
2018-12-09T04:26:06.304Z,981.76
2018-12-09T04:27:06.318Z,981.73
2018-12-09T04:28:06.333Z,981.75
2018-12-09T04:29:06.357Z,981.75
2018-12-09T04:30:06.371Z,981.64
2018-12-09T04:31:06.385Z,981.74
2018-12-09T04:32:06.399Z,981.69
2018-12-09T04:33:06.411Z,981.76
2018-12-09T04:34:06.426Z,981.73
2018-12-09T04:35:06.438Z,981.69
2018-12-09T04:36:06.452Z,981.75
2018-12-09T04:37:06.466Z,981.71
2018-12-09T04:38:06.486Z,981.69
2018-12-09T04:39:06.492Z,981.71
2018-12-09T04:40:08.681Z,981.75
2018-12-09T04:41:06.533Z,981.73
2018-12-09T04:42:06.544Z,981.69
2018-12-09T04:43:06.566Z,981.75
2018-12-09T04:44:06.575Z,981.74
2018-12-09T04:45:06.886Z,981.79
2018-12-09T04:46:06.649Z,981.70
2018-12-09T04:47:06.612Z,981.77
2018-12-09T04:48:06.626Z,981.68
2018-12-09T04:49:06.651Z,981.75
2018-12-09T04:50:06.674Z,981.80
2018-12-09T04:51:06.679Z,981.79
2018-12-09T04:52:06.696Z,981.81
2018-12-09T04:53:06.705Z,981.78
2018-12-09T04:54:06.718Z,981.77
2018-12-09T04:55:06.731Z,981.74
2018-12-09T04:56:06.747Z,981.84
2018-12-09T04:57:06.759Z,981.75
2018-12-09T04:58:06.772Z,981.78
2018-12-09T04:59:06.799Z,981.86
2018-12-09T05:00:06.810Z,981.80
2018-12-09T05:01:06.825Z,981.83
2018-12-09T05:02:06.839Z,981.90
2018-12-09T05:03:06.851Z,981.87
2018-12-09T05:04:06.864Z,981.87
2018-12-09T05:05:06.883Z,981.86
2018-12-09T05:06:06.892Z,981.87
2018-12-09T05:07:06.905Z,981.86
2018-12-09T05:08:06.931Z,981.90
2018-12-09T05:09:06.944Z,981.85
2018-12-09T05:10:06.958Z,981.89
2018-12-09T05:11:06.971Z,981.90
2018-12-09T05:12:06.985Z,981.90
2018-12-09T05:13:06.998Z,981.90
2018-12-09T05:14:07.019Z,981.93
2018-12-09T05:15:07.025Z,981.98
2018-12-09T05:16:07.039Z,981.97
2018-12-09T05:17:07.054Z,981.98
2018-12-09T05:18:07.077Z,982.03
2018-12-09T05:19:07.091Z,981.99
2018-12-09T05:20:07.104Z,981.99
2018-12-09T05:21:07.119Z,982.00
2018-12-09T05:22:07.131Z,982.00
2018-12-09T05:23:07.146Z,982.07
2018-12-09T05:24:07.159Z,982.10
2018-12-09T05:25:07.172Z,982.09
2018-12-09T05:26:07.186Z,982.08
2018-12-09T05:27:07.212Z,982.09
2018-12-09T05:28:07.225Z,982.14
2018-12-09T05:29:07.238Z,982.22
2018-12-09T05:30:07.254Z,982.17
2018-12-09T05:31:07.265Z,982.21
2018-12-09T05:32:07.280Z,982.23
2018-12-09T05:33:07.292Z,982.21
2018-12-09T05:34:07.310Z,982.20
2018-12-09T05:35:07.398Z,982.25
2018-12-09T05:36:07.345Z,982.20
2018-12-09T05:37:07.359Z,982.24
2018-12-09T05:38:07.373Z,982.27
2018-12-09T05:39:07.385Z,982.22
2018-12-09T05:40:07.398Z,982.25
2018-12-09T05:41:07.414Z,982.19
2018-12-09T05:42:07.426Z,982.20
2018-12-09T05:43:07.441Z,982.26
2018-12-09T05:44:07.455Z,982.30
2018-12-09T05:45:07.479Z,982.31
2018-12-09T05:46:08.497Z,982.33
2018-12-09T05:47:07.505Z,982.21
2018-12-09T05:48:07.519Z,982.29
2018-12-09T05:49:07.532Z,982.32
2018-12-09T05:50:07.546Z,982.29
2018-12-09T05:51:07.561Z,982.28
2018-12-09T05:52:07.574Z,982.31
2018-12-09T05:53:07.587Z,982.29
2018-12-09T05:54:07.612Z,982.32
2018-12-09T05:55:07.629Z,982.32
2018-12-09T05:56:07.652Z,982.25
2018-12-09T05:57:07.653Z,982.33
2018-12-09T05:58:07.665Z,982.31
2018-12-09T05:59:07.680Z,982.27
2018-12-09T06:00:07.693Z,982.36
2018-12-09T06:01:07.707Z,982.15
2018-12-09T06:02:07.719Z,982.35
2018-12-09T06:03:07.735Z,982.40
2018-12-09T06:04:07.748Z,982.38
2018-12-09T06:05:07.772Z,982.35
2018-12-09T06:06:07.786Z,982.30
2018-12-09T06:07:07.803Z,982.22
2018-12-09T06:08:07.814Z,982.35
2018-12-09T06:09:07.841Z,982.43
2018-12-09T06:10:07.841Z,982.18
2018-12-09T06:11:07.858Z,982.40
2018-12-09T06:12:07.867Z,982.34
2018-12-09T06:13:07.881Z,982.33
2018-12-09T06:14:07.895Z,982.35
2018-12-09T06:15:07.910Z,982.41
2018-12-09T06:16:07.936Z,982.41
2018-12-09T06:17:07.947Z,982.34
2018-12-09T06:18:07.961Z,982.48
2018-12-09T06:19:07.974Z,982.45
2018-12-09T06:20:08.003Z,982.48
2018-12-09T06:21:08.001Z,982.48
2018-12-09T06:22:08.014Z,982.58
2018-12-09T06:23:08.029Z,982.54
2018-12-09T06:24:08.041Z,982.55
2018-12-09T06:25:08.060Z,982.54
2018-12-09T06:26:08.103Z,982.55
2018-12-09T06:27:08.094Z,982.62
2018-12-09T06:28:08.108Z,982.64
2018-12-09T06:29:08.121Z,982.64
2018-12-09T06:30:08.136Z,982.63
2018-12-09T06:31:08.161Z,982.62
2018-12-09T06:32:08.163Z,982.68
2018-12-09T06:33:08.178Z,982.70
2018-12-09T06:34:08.192Z,982.65
2018-12-09T06:35:08.202Z,982.67
2018-12-09T06:36:08.221Z,982.70
2018-12-09T06:37:08.243Z,982.72
2018-12-09T06:38:08.256Z,982.75
2018-12-09T06:39:08.394Z,982.78
2018-12-09T06:40:08.282Z,982.80
2018-12-09T06:41:08.296Z,982.77
2018-12-09T06:42:08.311Z,982.87
2018-12-09T06:43:08.323Z,982.75
2018-12-09T06:44:08.336Z,982.83
2018-12-09T06:45:08.350Z,982.83
2018-12-09T06:46:08.377Z,982.88
2018-12-09T06:47:08.378Z,982.87
2018-12-09T06:48:08.395Z,982.90
2018-12-09T06:49:08.416Z,982.93
2018-12-09T06:50:08.430Z,982.85
2018-12-09T06:51:08.443Z,982.92
2018-12-09T06:52:08.457Z,982.94
2018-12-09T06:53:08.470Z,982.94
2018-12-09T06:54:08.484Z,982.96
2018-12-09T06:55:08.497Z,983.03
2018-12-09T06:56:08.511Z,983.03
2018-12-09T06:57:08.524Z,983.00
2018-12-09T06:58:08.539Z,983.03
2018-12-09T06:59:08.644Z,983.15
2018-12-09T07:00:08.577Z,983.17
2018-12-09T07:01:08.592Z,983.16
2018-12-09T07:02:08.605Z,983.19
2018-12-09T07:03:08.619Z,983.15
2018-12-09T07:04:08.632Z,983.23
2018-12-09T07:05:08.645Z,983.24
2018-12-09T07:06:08.658Z,983.30
2018-12-09T07:07:08.672Z,983.25
2018-12-09T07:08:08.686Z,983.29
2018-12-09T07:09:08.700Z,983.32
2018-12-09T07:10:08.712Z,983.34
2018-12-09T07:11:08.727Z,983.42
2018-12-09T07:12:08.740Z,983.45
2018-12-09T07:13:08.765Z,983.46
2018-12-09T07:14:08.782Z,983.47
2018-12-09T07:15:08.792Z,983.56
2018-12-09T07:16:08.809Z,983.51
2018-12-09T07:17:08.819Z,983.58
2018-12-09T07:18:08.835Z,983.56
2018-12-09T07:19:08.847Z,983.68
2018-12-09T07:20:08.861Z,983.65
2018-12-09T07:21:08.886Z,983.72
2018-12-09T07:22:08.888Z,983.67
2018-12-09T07:23:08.901Z,983.70
2018-12-09T07:24:08.926Z,983.72
2018-12-09T07:25:08.941Z,983.77
2018-12-09T07:26:08.954Z,983.80
2018-12-09T07:27:08.971Z,983.79
2018-12-09T07:28:08.981Z,983.81
2018-12-09T07:29:08.994Z,983.90
2018-12-09T07:30:09.010Z,983.92
2018-12-09T07:31:09.023Z,983.96
2018-12-09T07:32:09.037Z,983.95
2018-12-09T07:33:09.049Z,983.90
2018-12-09T07:34:09.066Z,983.89
2018-12-09T07:35:09.076Z,983.98
2018-12-09T07:36:09.090Z,983.97
2018-12-09T07:37:09.115Z,984.00
2018-12-09T07:38:09.129Z,984.03
2018-12-09T07:39:09.142Z,984.01
2018-12-09T07:40:09.155Z,984.11
2018-12-09T07:41:09.184Z,984.01
2018-12-09T07:42:09.206Z,984.06
2018-12-09T07:43:09.196Z,984.08
2018-12-09T07:44:09.210Z,984.09
2018-12-09T07:45:09.223Z,984.06
2018-12-09T07:46:09.237Z,984.11
2018-12-09T07:47:09.250Z,984.12
2018-12-09T07:48:09.277Z,984.13
2018-12-09T07:49:09.290Z,984.20
2018-12-09T07:50:09.303Z,984.20
2018-12-09T07:51:09.317Z,984.22
2018-12-09T07:52:09.330Z,984.21
2018-12-09T07:53:09.346Z,984.24
2018-12-09T07:54:09.357Z,984.21
2018-12-09T07:55:09.371Z,984.24
2018-12-09T07:56:09.384Z,984.22
2018-12-09T07:57:09.398Z,984.24
2018-12-09T07:58:09.412Z,984.27
2018-12-09T07:59:09.437Z,984.25
2018-12-09T08:00:09.452Z,984.33
2018-12-09T08:01:09.465Z,984.33
2018-12-09T08:02:09.478Z,984.37
2018-12-09T08:03:09.493Z,984.38
2018-12-09T08:04:09.506Z,984.40
2018-12-09T08:05:09.533Z,984.43
2018-12-09T08:06:09.532Z,984.48
2018-12-09T08:07:09.545Z,984.44
2018-12-09T08:08:09.560Z,984.50
2018-12-09T08:09:09.586Z,984.53
2018-12-09T08:10:09.611Z,984.55
2018-12-09T08:11:09.613Z,984.59
2018-12-09T08:12:09.626Z,984.64
2018-12-09T08:13:09.640Z,984.68
2018-12-09T08:14:09.655Z,984.70
2018-12-09T08:15:09.670Z,984.77
2018-12-09T08:16:09.680Z,984.67
2018-12-09T08:17:09.707Z,984.73
2018-12-09T08:18:09.708Z,984.68
2018-12-09T08:19:09.732Z,984.73
2018-12-09T08:20:09.748Z,984.81
2018-12-09T08:21:09.760Z,984.75
2018-12-09T08:22:09.773Z,984.77
2018-12-09T08:23:09.799Z,984.75
2018-12-09T08:24:09.801Z,984.81
2018-12-09T08:25:09.813Z,984.79
2018-12-09T08:26:09.828Z,984.87
2018-12-09T08:27:09.841Z,984.84
2018-12-09T08:28:09.855Z,984.86
2018-12-09T08:29:09.881Z,984.90
2018-12-09T08:30:09.893Z,984.88
2018-12-09T08:31:09.907Z,984.92
2018-12-09T08:32:09.925Z,984.84
2018-12-09T08:33:09.938Z,984.89
2018-12-09T08:34:09.947Z,985.01
2018-12-09T08:35:09.963Z,985.05
2018-12-09T08:36:09.974Z,985.04
2018-12-09T08:37:09.988Z,985.05
2018-12-09T08:38:10.001Z,985.06
2018-12-09T08:39:10.020Z,985.07
2018-12-09T08:40:10.042Z,985.08
2018-12-09T08:41:10.054Z,985.06
2018-12-09T08:42:10.072Z,985.09
2018-12-09T08:43:10.082Z,985.13
2018-12-09T08:44:10.095Z,985.11
2018-12-09T08:45:10.123Z,985.19
2018-12-09T08:46:10.122Z,985.16
2018-12-09T08:47:10.135Z,985.18
2018-12-09T08:48:10.149Z,985.24
2018-12-09T08:49:10.163Z,985.26
2018-12-09T08:50:10.188Z,985.27
2018-12-09T08:51:10.207Z,985.36
2018-12-09T08:52:10.216Z,985.30
2018-12-09T08:53:10.230Z,985.35
2018-12-09T08:54:10.242Z,985.34
2018-12-09T08:55:10.257Z,985.34
2018-12-09T08:56:10.270Z,985.38
2018-12-09T08:57:10.284Z,985.39
2018-12-09T08:58:10.309Z,985.40
2018-12-09T08:59:10.311Z,985.44
2018-12-09T09:00:10.336Z,985.42
2018-12-09T09:01:10.349Z,985.44
2018-12-09T09:02:10.364Z,985.48
2018-12-09T09:03:10.377Z,985.48
2018-12-09T09:04:10.390Z,985.56
2018-12-09T09:05:10.403Z,985.57
2018-12-09T09:06:10.419Z,985.52
2018-12-09T09:07:10.431Z,985.57
2018-12-09T09:08:10.446Z,985.63
2018-12-09T09:09:10.472Z,985.65
2018-12-09T09:10:10.484Z,985.70
2018-12-09T09:11:10.499Z,985.69
2018-12-09T09:12:10.511Z,985.68
2018-12-09T09:13:10.525Z,985.70
2018-12-09T09:14:10.538Z,985.82
2018-12-09T09:15:10.551Z,985.77
2018-12-09T09:16:10.566Z,985.83
2018-12-09T09:17:10.675Z,985.84
2018-12-09T09:18:10.606Z,985.83
2018-12-09T09:19:10.617Z,985.82
2018-12-09T09:20:10.633Z,985.83
2018-12-09T09:21:10.645Z,985.85
2018-12-09T09:22:10.659Z,985.80
2018-12-09T09:23:10.672Z,985.78
2018-12-09T09:24:10.698Z,985.85
2018-12-09T09:25:10.712Z,985.80
2018-12-09T09:26:10.727Z,985.81
2018-12-09T09:27:10.739Z,985.83
2018-12-09T09:28:10.752Z,985.92
2018-12-09T09:29:10.766Z,985.89
2018-12-09T09:30:10.779Z,985.88
2018-12-09T09:31:10.805Z,985.93
2018-12-09T09:32:10.822Z,985.92
2018-12-09T09:33:10.845Z,985.92
2018-12-09T09:34:10.846Z,985.98
2018-12-09T09:35:10.859Z,985.97
2018-12-09T09:36:10.873Z,985.97
2018-12-09T09:37:11.003Z,985.91
2018-12-09T09:38:10.912Z,985.96
2018-12-09T09:39:10.926Z,985.98
2018-12-09T09:40:10.938Z,985.96
2018-12-09T09:41:10.953Z,985.98
2018-12-09T09:42:11.066Z,985.92
2018-12-09T09:43:10.991Z,985.97
2018-12-09T09:44:11.006Z,986.02
2018-12-09T09:45:11.019Z,986.04
2018-12-09T09:46:11.033Z,985.99
2018-12-09T09:47:11.045Z,986.02
2018-12-09T09:48:11.061Z,986.04
2018-12-09T09:49:11.074Z,986.05
2018-12-09T09:50:12.087Z,986.09
2018-12-09T09:51:11.113Z,986.14
2018-12-09T09:52:11.127Z,986.13
2018-12-09T09:53:11.140Z,986.17
2018-12-09T09:54:11.165Z,986.19
2018-12-09T09:55:11.171Z,986.15
2018-12-09T09:56:11.193Z,986.14
2018-12-09T09:57:11.206Z,986.16
2018-12-09T09:58:11.219Z,986.15
2018-12-09T09:59:11.232Z,986.21
2018-12-09T10:00:11.253Z,986.26
2018-12-09T10:01:11.261Z,986.25
2018-12-09T10:02:11.286Z,986.26
2018-12-09T10:03:11.300Z,986.26
2018-12-09T10:04:11.314Z,986.19
2018-12-09T10:05:11.327Z,986.21
2018-12-09T10:06:11.340Z,986.25
2018-12-09T10:07:11.365Z,986.26
2018-12-09T10:08:11.381Z,986.28
2018-12-09T10:09:11.393Z,986.29
2018-12-09T10:10:11.406Z,986.22
2018-12-09T10:11:11.419Z,986.28
2018-12-09T10:12:11.434Z,986.32
2018-12-09T10:13:11.460Z,986.31
2018-12-09T10:14:11.476Z,986.31
2018-12-09T10:15:11.488Z,986.39
2018-12-09T10:16:11.500Z,986.37
2018-12-09T10:17:11.514Z,986.35
2018-12-09T10:18:11.542Z,986.38
2018-12-09T10:19:11.553Z,986.46
2018-12-09T10:20:11.567Z,986.45
2018-12-09T10:21:11.581Z,986.40
2018-12-09T10:22:11.634Z,986.46
2018-12-09T10:23:11.608Z,986.49
2018-12-09T10:24:11.637Z,986.42
2018-12-09T10:25:11.648Z,986.52
2018-12-09T10:26:11.660Z,986.47
2018-12-09T10:27:11.676Z,986.48
2018-12-09T10:28:11.703Z,986.44
2018-12-09T10:29:11.713Z,986.34
2018-12-09T10:30:11.728Z,986.39
2018-12-09T10:31:11.741Z,986.38
2018-12-09T10:32:11.755Z,986.39
2018-12-09T10:33:11.768Z,986.38
2018-12-09T10:34:11.793Z,986.41
2018-12-09T10:35:11.811Z,986.39
2018-12-09T10:36:11.926Z,986.38
2018-12-09T10:37:11.835Z,986.41
2018-12-09T10:38:11.848Z,986.45
2018-12-09T10:39:11.874Z,986.43
2018-12-09T10:40:11.888Z,986.39
2018-12-09T10:41:11.902Z,986.43
2018-12-09T10:42:11.918Z,986.44
2018-12-09T10:43:11.928Z,986.42
2018-12-09T10:44:11.954Z,986.45
2018-12-09T10:45:11.968Z,986.48
2018-12-09T10:46:11.981Z,986.44
2018-12-09T10:47:11.995Z,986.45
2018-12-09T10:48:12.020Z,986.52
2018-12-09T10:49:12.033Z,986.55
2018-12-09T10:50:12.048Z,986.60
2018-12-09T10:51:12.061Z,986.49
2018-12-09T10:52:12.075Z,986.54
2018-12-09T10:53:12.101Z,986.56
2018-12-09T10:54:12.113Z,986.53
2018-12-09T10:55:12.127Z,986.54
2018-12-09T10:56:12.142Z,986.55
2018-12-09T10:57:12.154Z,986.51
2018-12-09T10:58:12.180Z,986.48
2018-12-09T10:59:12.193Z,986.46
2018-12-09T11:00:12.219Z,986.49
2018-12-09T11:01:12.221Z,986.45
2018-12-09T11:02:12.235Z,986.46
2018-12-09T11:03:12.265Z,986.55
2018-12-09T11:04:12.276Z,986.53
2018-12-09T11:05:12.288Z,986.50
2018-12-09T11:06:12.301Z,986.52
2018-12-09T11:07:12.326Z,986.56
2018-12-09T11:08:12.341Z,986.61
2018-12-09T11:09:12.355Z,986.63
2018-12-09T11:10:12.368Z,986.54
2018-12-09T11:11:12.381Z,986.56
2018-12-09T11:12:12.407Z,986.54
2018-12-09T11:13:12.422Z,986.55
2018-12-09T11:14:12.435Z,986.57
2018-12-09T11:15:12.450Z,986.55
2018-12-09T11:16:12.462Z,986.61
2018-12-09T11:17:12.489Z,986.58
2018-12-09T11:18:12.502Z,986.60
2018-12-09T11:19:12.516Z,986.59
2018-12-09T11:20:12.529Z,986.63
2018-12-09T11:21:12.555Z,986.57
2018-12-09T11:22:12.569Z,986.64
2018-12-09T11:23:12.583Z,986.65
2018-12-09T11:24:12.595Z,986.65
2018-12-09T11:25:12.609Z,986.68
2018-12-09T11:26:12.625Z,986.65
2018-12-09T11:27:12.649Z,986.65
2018-12-09T11:28:12.662Z,986.65
2018-12-09T11:29:12.678Z,986.67
2018-12-09T11:30:12.690Z,986.68
2018-12-09T11:31:12.703Z,986.66
2018-12-09T11:32:12.729Z,986.70
2018-12-09T11:33:12.742Z,986.72
2018-12-09T11:34:12.755Z,986.67
2018-12-09T11:35:12.770Z,986.73
2018-12-09T11:36:12.782Z,986.70
2018-12-09T11:37:12.796Z,986.74
2018-12-09T11:38:12.847Z,986.67
2018-12-09T11:39:12.849Z,986.70
2018-12-09T11:40:12.852Z,986.62
2018-12-09T11:41:12.862Z,986.66
2018-12-09T11:42:12.877Z,986.68
2018-12-09T11:43:12.892Z,986.59
2018-12-09T11:44:12.916Z,986.67
2018-12-09T11:45:12.930Z,986.65
2018-12-09T11:46:12.943Z,986.69
2018-12-09T11:47:12.957Z,986.66
2018-12-09T11:48:12.987Z,986.67
2018-12-09T11:49:12.996Z,986.65
2018-12-09T11:50:13.013Z,986.67
2018-12-09T11:51:13.023Z,986.68
2018-12-09T11:52:13.041Z,986.68
2018-12-09T11:53:13.070Z,986.61
2018-12-09T11:54:13.076Z,986.65
2018-12-09T11:55:13.090Z,986.71
2018-12-09T11:56:13.103Z,986.63
2018-12-09T11:57:13.129Z,986.65
2018-12-09T11:58:13.144Z,986.72
2018-12-09T11:59:13.157Z,986.71
2018-12-09T12:00:13.172Z,986.75
2018-12-09T12:01:13.183Z,986.73
2018-12-09T12:02:19.949Z,986.70
2018-12-09T12:03:13.223Z,986.69
2018-12-09T12:04:13.337Z,986.71
2018-12-09T12:05:13.251Z,986.65
2018-12-09T12:06:13.277Z,986.68
2018-12-09T12:07:13.290Z,986.65
2018-12-09T12:08:13.305Z,986.71
2018-12-09T12:09:13.319Z,986.70
2018-12-09T12:10:13.333Z,986.72
2018-12-09T12:11:13.356Z,986.75
2018-12-09T12:12:13.370Z,986.80
2018-12-09T12:13:13.385Z,986.80
2018-12-09T12:14:13.399Z,986.82
2018-12-09T12:15:13.423Z,986.73
2018-12-09T12:16:13.438Z,986.80
2018-12-09T12:17:13.450Z,986.75
2018-12-09T12:18:13.464Z,986.74
2018-12-09T12:19:13.478Z,986.79
2018-12-09T12:20:13.506Z,986.77
2018-12-09T12:21:13.520Z,986.79
2018-12-09T12:22:13.530Z,986.79
2018-12-09T12:23:13.552Z,986.80
2018-12-09T12:24:13.558Z,986.85
2018-12-09T12:25:13.583Z,986.84
2018-12-09T12:26:13.599Z,986.83
2018-12-09T12:27:13.611Z,986.87
2018-12-09T12:28:13.626Z,986.85